Latest Weather Observations for Hobart

IDT60901

Issued at 11:11 am EDT Sunday 11 December 2016 (issued every 10 minutes, with the page automatically refreshed every 10 minutes)

About weather observations | Map of Hobart area stations | Latest observations for Hobart area | Other Formats
Station Details ID: 094029 Name: HOBART (ELLERSLIE ROAD) Lat: -42.89 Lon: 147.33 Height: 50.5 m
Data from the previous 72 hours. | See also: Recent months at Hobart
Date/Time
EDT
Temp
°C
App
Temp
°C
Dew
Point
°C
Rel
Hum
%
Delta-T
°C
Wind Press
QNH
hPa
Press
MSL
hPa
Rain since
9am
mm
Dir  Spd
km/h
Gust
km/h
Spd
kts
Gust
kts
11/11:00am 15.2 11.0 7.5 60 3.8 ESE 19 28 10 15 1022.8 1022.8 0.0
11/10:30am 15.2 11.1 7.8 61 3.7 SE 19 24 10 13 1022.7 1022.7 0.0
11/10:00am 14.2 10.2 8.2 67 3.0 ESE 19 26 10 14 1022.8 1022.8 0.0
11/09:30am 13.9 10.3 8.3 69 2.8 E 17 20 9 11 1022.8 1022.8 0.0
11/09:00am 13.5 10.3 8.3 71 2.6 E 15 20 8 11 1022.8 1022.8 0.0
11/08:30am 14.9 12.3 7.9 63 3.5 ESE 11 15 6 8 1022.5 1022.5 0.0
11/08:00am 13.6 10.9 7.5 66 3.0 ENE 11 17 6 9 1022.2 1022.2 0.0
11/07:30am 13.4 11.0 7.0 65 3.1 SSE 9 17 5 9 1021.6 1021.6 0.0
11/07:00am 12.6 8.7 7.0 68 2.7 NW 17 26 9 14 1021.1 1021.1 0.0
11/06:30am 12.2 9.8 7.0 70 2.5 NNW 9 13 5 7 1020.8 1020.8 0.0
11/06:00am 11.8 9.4 7.2 73 2.2 NW 9 13 5 7 1020.7 1020.7 0.0
11/05:30am 11.6 9.2 7.2 74 2.1 N 9 13 5 7 1020.2 1020.2 0.0
11/05:00am 11.7 9.4 7.3 74 2.1 W 9 15 5 8 1019.8 1019.7 0.0
11/04:30am 11.7 9.7 7.3 74 2.1 WNW 7 11 4 6 1019.5 1019.4 0.0
11/04:00am 11.7 9.4 7.3 74 2.1 WNW 9 13 5 7 1019.4 1019.3 0.0
11/03:30am 11.6 9.3 7.5 76 2.0 NNW 9 13 5 7 1019.4 1019.3 0.0
11/03:00am 11.7 9.4 7.3 74 2.1 NW 9 13 5 7 1019.4 1019.3 0.0
11/02:30am 12.0 8.9 7.2 72 2.3 W 13 19 7 10 1019.5 1019.4 0.0
11/02:00am 11.8 10.3 7.0 72 2.3 NNE 4 11 2 6 1019.4 1019.3 0.0
11/01:30am 12.0 10.1 6.5 69 2.6 S 6 7 3 4 1019.3 1019.2 0.0
11/01:00am 11.8 9.8 6.3 69 2.6 N 6 11 3 6 1019.0 1018.9 0.0
11/12:30am 11.7 8.4 6.6 71 2.4 NW 13 20 7 11 1019.1 1019.0 0.0
11/12:00am 12.4 9.0 6.0 65 3.0 NNW 13 19 7 10 1019.3 1019.2 0.0
 
Date/Time
EDT
Temp
°C
App
Temp
°C
Dew
Point
°C
Rel
Hum
%
Delta-T
°C
Wind Press
QNH
hPa
Press
MSL
hPa
Rain since
9am
mm
Dir  Spd
km/h
Gust
km/h
Spd
kts
Gust
kts
10/11:30pm 13.0 10.1 6.3 64 3.2 NW 11 22 6 12 1019.4 1019.3 0.0
10/11:00pm 13.4 9.5 5.3 58 3.8 NW 15 24 8 13 1019.2 1019.1 0.0
10/10:30pm 13.6 10.4 5.0 56 4.0 NW 11 20 6 11 1019.1 1019.0 0.0
10/10:00pm 13.8 9.0 4.7 54 4.2 NW 19 28 10 15 1019.0 1018.9 0.0
10/09:30pm 14.3 8.8 4.0 50 4.7 NNW 22 28 12 15 1018.4 1018.3 0.0
10/09:00pm 14.8 10.0 4.5 50 4.8 W 19 32 10 17 1018.2 1018.1 0.0
10/08:30pm 15.6 10.1 3.9 45 5.4 WNW 22 39 12 21 1017.6 1017.5 0.0
10/08:00pm 16.1 11.1 4.6 46 5.4 WNW 20 32 11 17 1017.0 1016.9 0.0
10/07:30pm 16.6 11.3 4.8 45 5.6 NW 22 32 12 17 1016.5 1016.4 0.0
10/07:00pm 17.1 12.6 6.0 48 5.4 WNW 19 28 10 15 1016.2 1016.1 0.0
10/06:30pm 17.6 13.0 5.4 44 5.9 WNW 19 30 10 16 1015.8 1015.7 0.0
10/06:00pm 17.3 15.2 6.8 50 5.2 WSW 7 15 4 8 1015.6 1015.5 0.0
10/05:30pm 18.0 14.1 5.4 43 6.1 NW 15 26 8 14 1015.7 1015.6 0.0
10/05:00pm 18.0 13.5 6.0 45 5.9 NW 19 26 10 14 1016.0 1015.9 0.0
10/04:30pm 16.9 13.3 6.8 51 5.0 NNW 15 24 8 13 1016.1 1016.0 0.0
10/04:00pm 16.8 12.1 6.2 49 5.2 NNW 20 33 11 18 1016.1 1016.0 0.0
10/03:35pm 16.5 10.3 6.0 50 5.1 NW 28 46 15 25 1016.2 1016.1 0.0
10/03:30pm 16.5 9.5 6.0 50 5.1 NW 32 46 17 25 1016.2 1016.1 0.0
10/03:00pm 16.4 9.6 5.3 47 5.3 NW 30 46 16 25 1016.4 1016.3 0.0
10/02:54pm 16.4 10.1 5.6 49 5.2 NW 28 54 15 29 1016.5 1016.4 0.0
10/02:30pm 16.2 11.1 6.1 51 4.9 NW 22 37 12 20 1016.6 1016.5 0.0
10/02:00pm 16.2 11.0 5.6 49 5.1 NW 22 35 12 19 1016.8 1016.7 0.0
10/01:30pm 16.2 10.3 5.9 50 5.0 NW 26 39 14 21 1016.7 1016.6 0.0
10/01:20pm 16.1 9.8 5.7 50 5.0 NW 28 50 15 27 1016.8 1016.7 0.0
10/01:00pm 16.1 9.4 5.4 49 5.1 NW 30 46 16 25 1016.7 1016.6 0.0
10/12:37pm 16.5 9.8 5.7 49 5.2 NW 30 48 16 26 1016.7 1016.6 0.0
10/12:30pm 16.4 9.8 6.1 50 5.0 NW 30 46 16 25 1016.6 1016.5 0.0
10/12:01pm 16.1 9.1 6.0 51 4.9 NW 32 50 17 27 1016.7 1016.6 0.0
10/12:00pm 16.1 9.1 6.0 51 4.9 NW 32 46 17 25 1016.8 1016.7 0.0
10/11:30am 16.3 8.8 6.2 51 4.9 NW 35 56 19 30 1016.4 1016.3 0.0
10/11:00am 17.3 10.2 6.3 48 5.4 NW 33 52 18 28 1016.4 1016.3 0.0
10/10:37am 18.1 11.6 6.6 47 5.7 NW 30 48 16 26 1016.3 1016.2 0.0
10/10:30am 18.8 13.1 6.6 45 6.1 NW 26 43 14 23 1016.2 1016.1 0.0
10/10:00am 17.6 13.2 6.5 48 5.5 NW 19 28 10 15 1016.5 1016.4 0.0
10/09:30am 16.5 11.8 6.0 50 5.1 NNW 20 32 11 17 1016.2 1016.1 0.0
10/09:00am 16.8 12.2 6.4 50 5.1 NNW 20 35 11 19 1016.0 1015.9 0.0
10/08:30am 14.9 11.1 5.9 55 4.3 NW 15 24 8 13 1016.0 1015.9 0.0
10/08:00am 14.7 11.0 6.2 56 4.1 N 15 22 8 12 1016.0 1015.9 0.0
10/07:30am 14.3 12.3 6.2 58 3.9 NW 6 13 3 7 1015.7 1015.6 0.0
10/07:00am 13.6 9.7 5.5 58 3.8 NNW 15 22 8 12 1015.2 1015.1 0.0
10/06:30am 12.5 6.9 5.2 61 3.4 NNW 24 43 13 23 1015.0 1014.9 0.0
10/06:00am 12.3 6.2 4.9 60 3.4 NNW 26 41 14 22 1014.8 1014.7 0.0
10/05:30am 11.7 8.1 4.9 63 3.1 N 13 24 7 13 1014.6 1014.5 0.0
10/05:00am 11.6 6.8 4.8 63 3.1 NNW 19 32 10 17 1014.5 1014.4 0.0
10/04:30am 11.3 5.6 4.7 64 3.0 NW 24 35 13 19 1014.3 1014.2 0.0
10/04:00am 11.2 8.7 4.6 64 3.0 WNW 7 19 4 10 1014.6 1014.5 0.0
10/03:30am 11.3 8.9 4.4 62 3.1 W 6 13 3 7 1014.8 1014.7 0.0
10/03:00am 11.2 7.9 4.6 64 3.0 WNW 11 19 6 10 1014.8 1014.7 0.0
10/02:30am 11.3 6.2 4.2 61 3.2 NW 20 35 11 19 1014.8 1014.7 0.0
10/02:00am 11.1 6.0 4.2 62 3.1 NW 20 33 11 18 1014.8 1014.7 0.0
10/01:30am 11.2 5.7 3.8 60 3.3 NW 22 32 12 17 1015.0 1014.9 0.0
10/01:00am 11.3 6.3 3.6 59 3.4 NW 19 28 10 15 1015.3 1015.2 0.0
10/12:30am 11.2 6.1 3.2 58 3.5 NW 19 26 10 14 1015.5 1015.4 0.0
10/12:00am 11.4 6.2 2.6 54 3.8 WNW 19 28 10 15 1015.4 1015.3 0.0
 
Date/Time
EDT
Temp
°C
App
Temp
°C
Dew
Point
°C
Rel
Hum
%
Delta-T
°C
Wind Press
QNH
hPa
Press
MSL
hPa
Rain since
9am
mm
Dir  Spd
km/h
Gust
km/h
Spd
kts
Gust
kts
09/11:30pm 11.5 6.3 2.2 53 4.0 NW 19 30 10 16 1015.4 1015.3 0.0
09/11:00pm 11.2 7.5 2.1 53 3.9 WNW 11 19 6 10 1015.2 1015.1 0.0
09/10:30pm 11.3 8.0 2.2 53 3.9 WNW 9 19 5 10 1015.5 1015.4 0.0
09/10:00pm 11.1 7.3 1.9 53 3.9 WNW 11 17 6 9 1015.2 1015.1 0.0
09/09:30pm 11.4 6.8 1.8 51 4.1 WNW 15 22 8 12 1015.2 1015.1 0.0
09/09:00pm 11.4 7.3 2.1 53 4.0 NW 13 20 7 11 1015.0 1014.9 0.0
09/08:30pm 11.5 6.6 1.9 51 4.1 WNW 17 26 9 14 1014.8 1014.7 0.0
09/08:00pm 11.7 6.5 2.2 52 4.1 WSW 19 35 10 19 1014.4 1014.3 0.0
09/07:30pm 11.8 7.3 2.3 52 4.1 SW 15 32 8 17 1014.2 1014.1 0.0
09/07:00pm 12.9 6.0 2.4 49 4.6 SW 28 48 15 26 1013.5 1013.4 0.0
09/06:59pm 12.8 5.9 2.5 49 4.5 SW 28 48 15 26 1013.5 1013.4 0.0
09/06:30pm 13.3 7.8 2.1 46 4.9 SW 20 35 11 19 1012.8 1012.7 0.0
09/06:00pm 13.8 6.9 2.5 46 5.0 SW 28 54 15 29 1012.1 1012.0 0.0
09/05:55pm 13.6 6.3 2.5 47 4.9 WSW 30 54 16 29 1011.9 1011.8 0.0
09/05:30pm 14.0 7.4 1.9 44 5.3 SW 26 56 14 30 1011.7 1011.6 0.0
09/05:00pm 14.5 7.3 0.7 39 5.9 SW 28 59 15 32 1011.3 1011.2 0.0
09/04:37pm 15.2 6.8 1.5 39 6.0 WSW 35 63 19 34 1011.0 1010.9 0.0
09/04:30pm 15.2 8.0 0.9 38 6.2 WSW 28 63 15 34 1010.8 1010.7 0.0
09/04:00pm 14.2 7.9 1.6 42 5.5 SSW 24 46 13 25 1010.6 1010.5 0.0
09/03:47pm 14.5 5.7 1.4 41 5.7 WSW 37 63 20 34 1010.4 1010.3 0.0
09/03:42pm 15.5 6.8 -0.3 34 6.7 WSW 35 63 19 34 1010.2 1010.2 0.0
09/03:40pm 15.3 6.6 -0.3 34 6.6 WSW 35 57 19 31 1010.2 1010.2 0.0
09/03:34pm 15.2 8.0 0.9 38 6.2 SW 28 57 15 31 1010.2 1010.2 0.0
09/03:30pm 15.9 10.4 2.0 39 6.2 SW 20 33 11 18 1010.4 1010.3 0.0
09/03:02pm 14.6 7.5 1.2 40 5.8 SW 28 46 15 25 1009.9 1009.9 0.0
09/03:00pm 14.7 7.2 1.1 39 5.9 SW 30 46 16 25 1009.9 1009.9 0.0
09/02:37pm 14.8 7.1 0.2 37 6.2 SW 30 52 16 28 1009.7 1009.7 0.0
09/02:30pm 15.3 8.8 0.0 35 6.5 SW 24 44 13 24 1009.7 1009.7 0.0
09/02:12pm 14.7 5.9 1.4 40 5.8 WSW 37 69 20 37 1009.3 1009.3 0.0
09/02:06pm 13.8 6.2 0.6 40 5.6 WSW 30 69 16 37 1009.2 1009.2 0.0
09/02:05pm 14.2 7.0 0.9 40 5.7 WSW 28 63 15 34 1009.3 1009.3 0.0
09/02:00pm 15.1 8.8 1.4 39 6.0 WSW 24 44 13 24 1009.2 1009.2 0.0
09/01:30pm 13.6 5.6 1.9 45 5.1 SW 33 67 18 36 1009.2 1009.2 0.0
09/01:00pm 14.8 7.7 1.2 39 5.9 SW 28 52 15 28 1008.8 1008.8 0.0
09/12:30pm 13.9 7.0 2.4 45 5.1 SW 28 50 15 27 1008.7 1008.7 0.0
09/12:03pm 13.3 6.5 3.3 50 4.5 WSW 28 52 15 28 1008.5 1008.5 0.0
09/12:00pm 13.7 7.6 2.7 47 4.9 SW 24 52 13 28 1008.5 1008.5 0.0
09/11:34am 13.2 5.7 1.3 44 5.1 WSW 30 48 16 26 1007.9 1007.9 0.0
09/11:30am 13.1 5.6 1.5 45 5.0 WSW 30 48 16 26 1007.9 1007.9 0.0
09/11:00am 12.7 5.4 2.4 49 4.5 WSW 30 56 16 30 1007.6 1007.6 0.0
09/10:54am 12.8 5.8 2.0 48 4.7 WSW 28 56 15 30 1007.6 1007.6 0.0
09/10:30am 12.1 6.5 3.6 56 3.8 WSW 22 43 12 23 1007.3 1007.3 0.0
09/10:00am 12.6 7.7 2.3 49 4.5 WSW 17 37 9 20 1006.7 1006.7 0.0
09/09:30am 10.3 4.8 2.1 57 3.5 SSW 20 43 11 23 1006.7 1006.7 0.0
09/09:00am 11.2 5.6 1.2 50 4.2 SSW 20 43 11 23 1006.1 1006.1 1.6
09/08:30am 10.2 4.7 2.0 57 3.5 SW 20 39 11 21 1005.7 1005.7 1.6
09/08:00am 9.3 4.4 2.2 61 3.0 SSW 17 30 9 16 1004.7 1004.7 1.6
09/07:30am 9.9 5.3 1.6 56 3.5 SW 15 32 8 17 1004.2 1004.2 1.6
09/07:00am 9.8 5.6 1.7 57 3.4 S 13 26 7 14 1003.3 1003.2 1.6
09/06:30am 8.5 3.1 1.5 61 2.9 SW 19 33 10 18 1002.3 1002.2 1.6
09/06:08am 8.5 1.4 1.2 60 3.0 SW 28 50 15 27 1001.4 1001.3 1.6
09/06:00am 8.4 1.7 1.7 63 2.8 SW 26 41 14 22 1001.2 1001.1 1.6
09/05:33am 8.5 1.5 1.8 63 2.8 SSW 28 48 15 26 1000.7 1000.6 1.6
09/05:30am 8.6 2.4 1.9 63 2.8 SW 24 44 13 24 1000.6 1000.5 1.6
09/05:00am 8.7 4.3 2.9 67 2.5 SW 15 30 8 16 1000.2 1000.1 1.6
09/04:30am 8.4 1.4 4.1 74 1.9 SW 30 48 16 26 999.3 999.2 1.6
09/04:00am 9.4 2.4 2.1 60 3.1 SW 28 46 15 25 998.4 998.3 1.4
09/03:30am 9.9 2.0 2.5 60 3.2 SW 33 57 18 31 997.5 997.4 1.4
09/03:00am 10.0 1.9 3.1 62 3.0 SW 35 54 19 29 996.9 996.8 1.4
09/02:54am 10.1 3.3 3.3 62 3.0 WSW 28 54 15 29 996.7 996.6 1.4
09/02:30am 10.1 4.2 3.8 65 2.8 WSW 24 48 13 26 996.3 996.2 1.4
09/02:01am 10.5 3.4 3.5 62 3.1 SW 30 48 16 26 995.5 995.4 1.4
09/02:00am 10.5 3.0 3.2 60 3.2 SW 32 48 17 26 995.5 995.4 1.4
09/01:30am 10.6 3.1 3.6 62 3.1 SW 32 56 17 30 994.6 994.5 1.4
09/01:00am 11.0 3.4 3.9 61 3.2 SW 33 61 18 33 994.2 994.1 1.4
09/12:30am 11.6 4.4 4.9 63 3.1 SW 32 52 17 28 993.5 993.4 1.4
09/12:01am 12.1 5.9 6.0 66 2.9 WSW 28 46 15 25 992.8 992.7 1.4
09/12:00am 12.1 6.2 6.0 66 2.9 WSW 26 41 14 22 992.7 992.6 1.4
 
Date/Time
EDT
Temp
°C
App
Temp
°C
Dew
Point
°C
Rel
Hum
%
Delta-T
°C
Wind Press
QNH
hPa
Press
MSL
hPa
Rain since
9am
mm
Dir  Spd
km/h
Gust
km/h
Spd
kts
Gust
kts
08/11:30pm 13.0 6.9 6.4 64 3.2 WSW 28 44 15 24 991.5 991.4 1.4
08/11:00pm 13.7 6.3 6.8 63 3.4 SW 35 63 19 34 989.9 989.9 1.4
08/10:51pm 13.7 6.1 7.7 67 3.0 SW 37 63 20 34 989.5 989.5 1.4
08/10:30pm 14.7 8.9 8.0 64 3.4 WSW 28 50 15 27 988.6 988.6 1.2
08/10:29pm 14.8 9.0 7.9 63 3.4 WSW 28 50 15 27 988.5 988.5 1.2
08/10:16pm 15.1 10.9 7.5 60 3.8 W 19 44 10 24 987.9 987.9 1.0
08/10:00pm 14.9 12.2 8.9 67 3.1 WSW 13 32 7 17 987.2 987.2 1.0
08/09:30pm 14.8 13.4 9.7 71 2.6 WNW 7 13 4 7 986.1 986.0 1.0
08/09:00pm 16.4 11.8 6.6 52 4.9 WNW 20 32 11 17 985.0 984.9 0.8
08/08:30pm 16.4 12.2 7.6 56 4.4 NW 19 26 10 14 984.1 984.0 0.8
08/08:00pm 17.4 10.4 6.2 47 5.6 WNW 32 46 17 25 983.0 982.9 0.8
08/07:34pm 18.1 11.6 4.5 40 6.5 NW 28 52 15 28 982.6 982.5 0.8
08/07:30pm 18.1 12.4 4.7 41 6.4 NW 24 37 13 20 982.6 982.5 0.8
08/07:00pm 18.3 9.8 5.3 42 6.4 NW 39 69 21 37 981.6 981.5 0.8
08/06:30pm 19.8 10.2 4.2 35 7.5 NW 44 70 24 38 980.6 980.5 0.8
08/06:00pm 19.7 10.7 4.7 37 7.4 NNW 41 65 22 35 980.3 980.2 0.8
08/05:30pm 20.0 9.2 4.3 35 7.6 NNW 50 83 27 45 980.4 980.3 0.8
08/05:17pm 20.1 9.7 4.1 35 7.7 NNW 48 80 26 43 980.6 980.5 0.8
08/05:00pm 21.0 12.4 4.7 34 8.1 NNW 39 72 21 39 980.8 980.7 0.8
08/04:30pm 21.9 11.3 3.1 29 9.0 NNW 48 72 26 39 980.9 980.8 0.8
08/04:00pm 22.8 13.2 3.5 28 9.5 N 43 69 23 37 980.8 980.7 0.8
08/03:30pm 23.8 14.8 4.6 28 9.6 N 41 70 22 38 981.3 981.2 0.8
08/03:00pm 23.9 17.1 9.1 39 8.1 NNW 35 65 19 35 982.0 981.9 0.8
08/02:30pm 22.2 16.0 11.4 50 6.0 N 35 54 19 29 983.1 983.0 0.8
08/02:03pm 22.1 17.4 12.1 53 5.6 N 28 61 15 33 983.8 983.7 0.8
08/02:00pm 21.6 17.8 12.3 55 5.3 N 24 43 13 23 983.8 983.7 0.8
08/01:30pm 20.5 18.3 13.2 63 4.2 N 17 24 9 13 984.7 984.6 0.8
08/01:00pm 21.3 17.8 13.4 60 4.6 NNW 24 33 13 18 985.3 985.2 0.8
08/12:30pm 19.9 17.0 14.1 69 3.4 NNW 22 33 12 18 986.1 986.0 0.8
08/12:00pm 17.5 14.0 13.5 77 2.3 NNW 24 32 13 17 987.6 987.6 0.8
08/11:30am 16.7 13.6 13.4 81 1.9 NW 22 30 12 16 988.1 988.1 0.6

Latest Capital City Observations: Canberra | Sydney | Melbourne | Brisbane | Adelaide | Perth | Hobart | Darwin

Other Formats:

Comma delimited format used in spreadsheet applications
http://www.bom.gov.au/fwo/IDT60901/IDT60901.94970.axf

JavaScript Object Notation format (JSON) in row-major order
http://www.bom.gov.au/fwo/IDT60901/IDT60901.94970.json